Time;durP1;ratioP1;P1;durP2;ratioP2;P2;SDS_P1;SDS_P2;PMS_P1;PMS_P2;Temp;Humidity;BMP_temperature;BMP_pressure;BME280_temperature;BME280_humidity;BME280_pressure;Samples;Min_cycle;Max_cycle;Signal;HPM_P1;HPM_P2
2023/07/19 00:01:39;;;;;;;1.58;1.48;;;;;;;17.22;87.74;101401.09;10413957;28;20041;-72
2023/07/19 00:06:39;;;;;;;3.08;2.00;;;;;;;17.30;88.32;101402.72;10415946;28;20084;-71
2023/07/19 00:11:39;;;;;;;2.08;1.90;;;;;;;17.47;88.59;101397.44;10413102;28;20026;-71
2023/07/19 00:16:40;;;;;;;10.93;2.50;;;;;;;17.57;88.64;101398.53;10395796;28;20033;-72
2023/07/19 00:21:40;;;;;;;1.98;1.77;;;;;;;17.65;88.24;101386.44;10414532;28;20044;-71
2023/07/19 00:26:41;;;;;;;1.20;1.10;;;;;;;17.71;88.26;101387.38;10413343;28;20041;-71
2023/07/19 00:31:42;;;;;;;3.33;1.52;;;;;;;17.73;88.58;101377.88;10428786;28;20079;-72
2023/07/19 00:36:42;;;;;;;2.25;2.05;;;;;;;17.75;88.64;101369.44;10411427;28;20029;-72
2023/07/19 00:41:43;;;;;;;2.22;1.95;;;;;;;17.75;89.63;101363.97;10418686;28;20045;-72
2023/07/19 00:46:43;;;;;;;2.72;2.35;;;;;;;17.80;89.51;101373.16;10421542;28;20045;-71
2023/07/19 00:51:43;;;;;;;2.42;2.10;;;;;;;17.86;89.03;101369.47;10419565;28;20489;-72
2023/07/19 00:56:44;;;;;;;5.30;2.60;;;;;;;17.91;88.85;101366.06;10420865;28;20087;-72
2023/07/19 01:01:44;;;;;;;3.83;2.42;;;;;;;17.94;90.12;101370.22;10420742;28;20033;-71
2023/07/19 01:06:45;;;;;;;6.30;1.95;;;;;;;17.95;89.92;101366.41;10420738;28;20037;-72
2023/07/19 01:11:45;;;;;;;3.55;1.98;;;;;;;17.98;90.28;101355.81;10436017;28;20045;-72
2023/07/19 01:16:45;;;;;;;2.95;2.50;;;;;;;18.04;90.44;101354.03;10418789;28;20140;-71
2023/07/19 01:21:46;;;;;;;2.38;2.17;;;;;;;18.04;89.19;101360.34;10420937;28;20042;-71
2023/07/19 01:26:47;;;;;;;2.83;2.55;;;;;;;18.00;89.47;101352.84;10436430;28;20037;-72
2023/07/19 01:31:47;;;;;;;14.43;2.30;;;;;;;17.99;89.89;101356.63;10418751;28;20037;-72
2023/07/19 01:36:47;;;;;;;3.45;1.88;;;;;;;17.95;89.07;101352.72;10419530;28;20037;-71
2023/07/19 01:41:48;;;;;;;2.10;1.90;;;;;;;17.89;90.54;101341.63;10419549;28;20069;-71
2023/07/19 01:46:48;;;;;;;2.83;2.47;;;;;;;17.96;90.14;101344.25;10419036;28;20124;-72
2023/07/19 01:51:49;;;;;;;3.85;2.00;;;;;;;18.04;89.56;101345.81;10417349;28;20062;-71
2023/07/19 01:56:49;;;;;;;3.38;2.45;;;;;;;18.08;89.77;101347.00;10416917;28;20072;-71
2023/07/19 02:01:49;;;;;;;5.38;2.63;;;;;;;18.14;88.70;101337.84;10416248;28;20033;-71
2023/07/19 02:06:50;;;;;;;3.60;2.42;;;;;;;18.19;88.36;101346.19;10417946;28;20069;-72
2023/07/19 02:11:50;;;;;;;4.40;2.75;;;;;;;18.23;88.19;101347.38;10416061;28;20052;-71
2023/07/19 02:16:51;;;;;;;3.90;2.13;;;;;;;18.21;87.88;101335.81;10415920;28;20354;-71
2023/07/19 02:21:52;;;;;;;7.00;2.22;;;;;;;18.17;87.12;101334.63;10416894;28;20084;-72
2023/07/19 02:26:53;;;;;;;5.30;2.28;;;;;;;18.03;86.64;101331.28;10415828;28;20124;-71
2023/07/19 02:31:53;;;;;;;5.13;2.38;;;;;;;17.92;86.66;101328.53;10414561;28;20108;-72
2023/07/19 02:36:56;;;;;;;2.33;2.13;;;;;;;17.86;86.90;101322.91;10414455;28;20044;-71
2023/07/19 02:41:57;;;;;;;4.97;2.75;;;;;;;17.84;87.10;101333.28;10414994;28;20037;-72
2023/07/19 02:46:57;;;;;;;4.93;2.90;;;;;;;17.86;87.19;101328.38;10415436;28;20454;-72
2023/07/19 02:51:58;;;;;;;2.75;2.35;;;;;;;17.91;86.68;101326.88;10380007;28;1080908;-72
2023/07/19 02:56:58;;;;;;;10.57;2.83;;;;;;;17.89;87.20;101314.22;10416866;28;20148;-72
2023/07/19 03:01:58;;;;;;;2.60;2.40;;;;;;;17.94;86.56;101323.66;10415545;28;20145;-72
2023/07/19 03:06:59;;;;;;;2.60;2.42;;;;;;;17.75;85.49;101325.59;10416364;28;20042;-71
2023/07/19 03:11:59;;;;;;;4.93;2.38;;;;;;;17.49;86.28;101332.31;10416199;28;20044;-71
2023/07/19 03:17:00;;;;;;;2.58;2.20;;;;;;;17.33;86.73;101331.06;10414087;28;20037;-72
2023/07/19 03:22:00;;;;;;;11.52;2.55;;;;;;;17.20;87.74;101321.16;10415113;28;20060;-71
2023/07/19 03:27:00;;;;;;;2.88;2.30;;;;;;;17.13;88.29;101314.91;10417345;28;20061;-71
2023/07/19 03:32:01;;;;;;;3.88;2.60;;;;;;;17.09;89.27;101313.69;10416160;28;20488;-72
2023/07/19 03:37:01;;;;;;;4.75;2.90;;;;;;;17.04;90.61;101316.28;10413141;28;20444;-71
2023/07/19 03:42:02;;;;;;;3.30;2.50;;;;;;;17.04;90.68;101319.00;10415400;28;20123;-71
2023/07/19 03:47:02;;;;;;;3.28;2.55;;;;;;;16.99;91.31;101305.22;10429870;28;20044;-72
2023/07/19 03:52:03;;;;;;;3.75;2.83;;;;;;;16.96;91.95;101315.53;10415570;28;20075;-71
2023/07/19 03:57:03;;;;;;;3.75;3.10;;;;;;;16.92;92.75;101317.06;10413083;28;20508;-72
2023/07/19 04:02:04;;;;;;;6.32;2.60;;;;;;;16.85;94.55;101302.66;10414004;28;20536;-71
2023/07/19 04:07:05;;;;;;;4.15;3.67;;;;;;;16.87;95.74;101305.13;10414992;28;20033;-71
2023/07/19 04:12:05;;;;;;;2.95;2.72;;;;;;;16.93;95.52;101301.50;10413781;28;20061;-72
2023/07/19 04:17:07;;;;;;;4.97;2.72;;;;;;;16.90;95.65;101305.50;10414024;28;20046;-71
2023/07/19 04:22:08;;;;;;;4.25;2.85;;;;;;;16.96;97.51;101310.06;10414030;28;20041;-71
2023/07/19 04:27:08;;;;;;;5.45;3.05;;;;;;;17.04;98.16;101313.53;10413014;28;20369;-71
2023/07/19 04:32:08;;;;;;;10.15;2.20;;;;;;;17.12;98.29;101305.84;10414193;28;20033;-71
2023/07/19 04:37:09;;;;;;;12.85;4.07;;;;;;;17.17;98.16;101310.66;10412883;28;20521;-72
2023/07/19 04:42:09;;;;;;;4.88;3.42;;;;;;;17.31;98.69;101314.88;10413619;28;20044;-72
2023/07/19 04:47:10;;;;;;;6.22;3.85;;;;;;;17.50;99.00;101315.66;10413480;28;20096;-71
2023/07/19 04:52:11;;;;;;;5.30;3.90;;;;;;;17.61;99.07;101309.38;10414196;28;20547;-72
2023/07/19 04:57:11;;;;;;;5.30;2.83;;;;;;;17.75;99.21;101320.97;10412353;28;20048;-72
2023/07/19 05:02:13;;;;;;;6.38;3.75;;;;;;;17.93;99.41;101320.06;10411586;28;20037;-71
2023/07/19 05:07:14;;;;;;;3.03;2.75;;;;;;;18.06;99.91;101329.97;10411476;28;20496;-72
2023/07/19 05:12:15;;;;;;;4.03;3.38;;;;;;;18.15;100.00;101331.28;10412554;28;20044;-72
2023/07/19 05:17:15;;;;;;;3.47;2.85;;;;;;;18.32;100.00;101335.00;10412286;28;20477;-72
2023/07/19 05:22:16;;;;;;;3.88;3.38;;;;;;;18.59;100.00;101324.34;10413197;28;20049;-72
2023/07/19 05:27:17;;;;;;;3.95;3.65;;;;;;;18.88;100.00;101316.22;10416490;28;20039;-72
2023/07/19 05:32:18;;;;;;;5.57;3.92;;;;;;;18.86;100.00;101312.03;10420754;28;20056;-72
2023/07/19 05:37:19;;;;;;;5.85;2.67;;;;;;;18.88;100.00;101321.69;10418731;28;20095;-71
2023/07/19 05:42:19;;;;;;;2.83;2.63;;;;;;;19.12;100.00;101319.75;10419037;28;20033;-71
2023/07/19 05:47:20;;;;;;;7.80;2.97;;;;;;;19.42;100.00;101321.41;10418845;28;20091;-72
2023/07/19 05:52:20;;;;;;;5.00;2.30;;;;;;;21.03;100.00;101308.78;10420613;28;20065;-72
2023/07/19 05:57:20;;;;;;;8.55;3.38;;;;;;;20.56;100.00;101309.28;10417311;28;20057;-72
2023/07/19 06:02:21;;;;;;;3.38;3.15;;;;;;;21.29;100.00;101316.25;10418973;28;20037;-72
2023/07/19 06:07:21;;;;;;;8.32;3.45;;;;;;;22.60;100.00;101319.56;10418434;28;20060;-72
2023/07/19 06:12:22;;;;;;;8.48;3.28;;;;;;;22.70;100.00;101316.03;10418852;28;20092;-72
2023/07/19 06:17:22;;;;;;;7.57;2.42;;;;;;;22.09;100.00;101310.94;10417837;28;20038;-72
2023/07/19 06:22:23;;;;;;;2.90;2.70;;;;;;;22.05;100.00;101313.41;10418068;28;20042;-72
2023/07/19 06:27:23;;;;;;;7.20;2.63;;;;;;;22.42;100.00;101308.97;10417889;28;20099;-72
2023/07/19 06:32:24;;;;;;;3.70;2.85;;;;;;;23.49;100.00;101309.41;10416790;28;20373;-72
2023/07/19 06:37:24;;;;;;;6.10;2.72;;;;;;;24.70;100.00;101309.63;10415710;28;20033;-72
2023/07/19 06:42:24;;;;;;;5.93;3.33;;;;;;;24.66;100.00;101310.47;10416764;28;20034;-72
2023/07/19 06:47:26;;;;;;;6.40;2.70;;;;;;;25.13;100.00;101315.56;10416486;28;20054;-72
2023/07/19 06:52:27;;;;;;;5.13;1.83;;;;;;;23.66;100.00;101320.22;10416788;28;20052;-72
2023/07/19 06:57:27;;;;;;;14.68;2.63;;;;;;;22.97;100.00;101329.69;10417317;28;20124;-72
2023/07/19 07:02:27;;;;;;;16.27;2.78;;;;;;;24.72;100.00;101320.41;10416800;28;20401;-71
2023/07/19 07:07:28;;;;;;;17.45;2.30;;;;;;;25.17;98.67;101322.19;10416584;28;20041;-72
2023/07/19 07:12:28;;;;;;;3.28;2.03;;;;;;;25.92;97.15;101332.25;10416002;28;20097;-72
2023/07/19 07:17:29;;;;;;;1.92;1.83;;;;;;;24.88;95.55;101323.97;10416072;28;20480;-71
2023/07/19 07:22:29;;;;;;;4.90;2.28;;;;;;;26.20;88.41;101325.06;10417906;28;20068;-73
2023/07/19 07:27:30;;;;;;;4.88;2.55;;;;;;;25.25;87.48;101327.13;10430472;28;20034;-76
2023/07/19 07:32:31;;;;;;;2.45;2.25;;;;;;;24.52;87.08;101324.09;10431488;28;20045;-75
2023/07/19 07:37:31;;;;;;;4.00;2.67;;;;;;;23.31;88.37;101327.34;10398165;28;20087;-75
2023/07/19 07:42:32;;;;;;;8.50;2.97;;;;;;;23.01;87.86;101338.31;10414586;28;20488;-74
2023/07/19 07:47:32;;;;;;;3.90;2.50;;;;;;;22.52;88.44;101329.16;10412996;28;20041;-74
2023/07/19 07:52:33;;;;;;;15.20;3.00;;;;;;;22.35;88.48;101342.31;10412648;28;20038;-75
2023/07/19 07:57:33;;;;;;;5.82;2.85;;;;;;;22.90;87.27;101332.69;10413609;28;20045;-74
2023/07/19 08:02:34;;;;;;;4.70;2.45;;;;;;;22.98;85.42;101318.41;10414785;28;20485;-74
2023/07/19 08:07:34;;;;;;;4.68;3.33;;;;;;;23.20;83.69;101325.66;10396658;28;20097;-74
2023/07/19 08:12:34;;;;;;;3.75;2.53;;;;;;;24.22;82.66;101319.38;10429327;28;20101;-74
2023/07/19 08:17:35;;;;;;;7.22;3.25;;;;;;;24.00;81.03;101320.53;10429958;28;20029;-74
2023/07/19 08:22:36;;;;;;;4.30;2.28;;;;;;;23.75;80.16;101304.78;10413981;28;20029;-74
2023/07/19 08:27:36;;;;;;;5.85;3.53;;;;;;;23.65;79.76;101307.50;10412731;28;20037;-73
2023/07/19 08:32:37;;;;;;;2.25;2.13;;;;;;;23.48;79.60;101316.03;10412617;28;20110;-74
2023/07/19 08:37:37;;;;;;;15.98;3.75;;;;;;;23.26;80.31;101315.44;10412052;28;20063;-74
2023/07/19 08:42:38;;;;;;;5.25;3.05;;;;;;;23.20;81.30;101317.38;10413505;28;20033;-74
2023/07/19 08:47:39;;;;;;;3.15;2.67;;;;;;;22.94;80.79;101321.94;10412606;28;20029;-74
2023/07/19 08:52:39;;;;;;;9.70;2.78;;;;;;;22.85;81.58;101321.63;10411516;28;20511;-74
2023/07/19 08:57:41;;;;;;;6.47;1.90;;;;;;;22.74;79.91;101326.25;10428683;28;20056;-76
2023/07/19 09:02:49;;;;;;;3.22;3.00;;;;;;;23.55;77.84;101322.16;10416980;28;20113;-75
2023/07/19 09:07:51;;;;;;;3.33;2.53;;;;;;;24.42;74.89;101319.41;10436504;28;20033;-75
2023/07/19 09:12:52;;;;;;;3.75;1.95;;;;;;;24.25;74.73;101322.44;10402776;28;20029;-75
2023/07/19 09:17:52;;;;;;;4.70;1.90;;;;;;;23.76;76.09;101327.72;10419014;28;20108;-75
2023/07/19 09:22:52;;;;;;;3.65;2.40;;;;;;;23.72;77.58;101323.84;10419023;28;20029;-75
2023/07/19 09:27:53;;;;;;;5.35;3.38;;;;;;;23.66;77.13;101331.28;10419663;28;20124;-76
2023/07/19 09:32:59;;;;;;;2.05;1.75;;;;;;;23.35;77.77;101342.25;10435545;28;20040;-75
2023/07/19 09:38:01;;;;;;;4.50;3.00;;;;;;;23.15;77.63;101342.22;10418449;28;20096;-75
2023/07/19 09:43:01;;;;;;;3.88;2.85;;;;;;;23.06;78.08;101336.38;10402254;28;20271;-75
2023/07/19 09:48:01;;;;;;;7.72;2.45;;;;;;;22.95;78.49;101335.50;10419112;28;20036;-75
2023/07/19 09:53:02;;;;;;;5.13;2.55;;;;;;;23.06;78.88;101332.78;10417856;28;20043;-76
2023/07/19 09:58:04;;;;;;;4.88;1.83;;;;;;;23.38;78.46;101336.19;10400542;28;20021;-77
2023/07/19 10:03:11;;;;;;;7.00;2.42;;;;;;;23.88;77.40;101339.34;10402164;28;20028;-75
2023/07/19 10:08:11;;;;;;;;;;;;;;;23.85;76.56;101349.00;10434480;28;20025;-76
2023/07/19 10:13:14;;;;;;;1.45;1.35;;;;;;;23.84;75.94;101344.59;10416095;28;19967;-75
2023/07/19 10:18:14;;;;;;;8.48;1.85;;;;;;;24.15;74.74;101344.56;10400646;28;20091;-76
2023/07/19 10:23:15;;;;;;;4.05;2.63;;;;;;;24.70;74.15;101342.88;10416518;28;20033;-75
2023/07/19 10:28:29;;;;;;;6.05;2.42;;;;;;;25.47;70.42;101340.59;10416434;28;20060;-75
2023/07/19 10:33:34;;;;;;;2.97;1.80;;;;;;;27.06;65.93;101342.75;10400101;28;20029;-76
2023/07/19 10:38:36;;;;;;;2.45;2.17;;;;;;;27.32;66.06;101345.22;10415892;28;20124;-76
2023/07/19 10:43:38;;;;;;;1.95;1.50;;;;;;;27.17;64.13;101342.63;10416499;28;20033;-76
2023/07/19 10:48:39;;;;;;;2.83;2.33;;;;;;;26.47;66.57;101346.72;10398622;28;20049;-76
2023/07/19 10:53:59;;;;;;;3.80;2.10;;;;;;;26.00;65.18;101353.81;10433517;28;20144;-76
2023/07/19 10:59:02;;;;;;;3.72;2.63;;;;;;;25.53;67.12;101355.25;10417828;28;20046;-77
2023/07/19 11:04:07;;;;;;;3.58;1.70;;;;;;;25.08;66.65;101356.28;10398975;28;20103;-76
2023/07/19 11:09:09;;;;;;;3.05;1.83;;;;;;;24.91;66.48;101362.19;10416500;28;20049;-75
2023/07/19 11:14:10;;;;;;;4.40;2.03;;;;;;;26.61;62.58;101356.06;10416065;28;20052;-76
2023/07/19 11:19:11;;;;;;;3.40;2.03;;;;;;;27.72;59.83;101354.06;10399354;28;20032;-77
2023/07/19 11:24:12;;;;;;;2.75;2.00;;;;;;;26.82;58.88;101367.75;10413456;28;20056;-77
2023/07/19 11:29:13;;;;;;;1.77;1.67;;;;;;;27.68;54.84;101366.94;10399244;28;20034;-77
2023/07/19 11:34:14;;;;;;;3.92;2.33;;;;;;;27.18;55.39;101359.00;10430435;28;20036;-77
2023/07/19 11:39:33;;;;;;;1.50;1.42;;;;;;;29.19;53.25;101358.91;10396821;28;20531;-77
2023/07/19 11:44:42;;;;;;;2.80;2.33;;;;;;;28.69;53.95;101363.56;10414747;28;20100;-77
2023/07/19 11:49:43;;;;;;;5.88;2.53;;;;;;;27.01;57.59;101362.25;10430137;28;20459;-77
2023/07/19 11:54:44;;;;;;;2.92;2.25;;;;;;;26.41;58.69;101365.38;10429309;28;20032;-77
2023/07/19 11:59:45;;;;;;;2.35;2.15;;;;;;;26.21;59.04;101369.19;10413050;28;20422;-76
2023/07/19 12:04:45;;;;;;;1.38;1.35;;;;;;;26.49;58.78;101366.75;10412884;28;20037;-76
2023/07/19 12:09:47;;;;;;;4.22;1.98;;;;;;;27.21;56.12;101372.31;10396235;28;20029;-76
2023/07/19 12:14:47;;;;;;;2.03;1.48;;;;;;;29.45;51.39;101363.91;10413686;28;20443;-77
2023/07/19 12:19:48;;;;;;;2.13;1.98;;;;;;;30.05;48.97;101363.63;10414162;28;20040;-76
2023/07/19 12:24:49;;;;;;;4.47;1.60;;;;;;;30.91;48.10;101368.06;10430099;28;20033;-77
2023/07/19 12:29:49;;;;;;;12.50;2.05;;;;;;;30.29;50.85;101362.50;10429354;28;20045;-77
2023/07/19 12:34:50;;;;;;;6.47;1.13;;;;;;;29.22;50.93;101373.38;10413722;28;20033;-77
2023/07/19 12:39:52;;;;;;;3.22;1.48;;;;;;;28.81;51.14;101363.88;10403910;28;20044;-76
2023/07/19 12:44:52;;;;;;;1.90;1.80;;;;;;;27.90;52.75;101360.78;10403705;28;20037;-76
2023/07/19 12:49:53;;;;;;;3.97;1.52;;;;;;;28.56;50.59;101368.00;10419983;28;20053;-76
2023/07/19 12:54:55;;;;;;;2.70;1.45;;;;;;;28.94;50.41;101363.06;10420061;28;20498;-76
2023/07/19 12:59:55;;;;;;;1.73;1.48;;;;;;;28.65;51.57;101368.09;10436314;28;20044;-75
2023/07/19 13:04:57;;;;;;;1.88;1.60;;;;;;;27.92;52.26;101370.47;10420475;28;20041;-76
2023/07/19 13:09:57;;;;;;;1.77;1.67;;;;;;;27.85;51.83;101370.03;10419562;28;20369;-76
2023/07/19 13:14:58;;;;;;;2.33;2.10;;;;;;;27.62;49.32;101365.34;10419214;28;20084;-75
2023/07/19 13:19:59;;;;;;;3.22;1.77;;;;;;;26.77;50.57;101373.41;10402565;28;20418;-76
2023/07/19 13:24:59;;;;;;;3.13;1.85;;;;;;;26.55;51.19;101370.31;10419395;28;20424;-76
2023/07/19 13:30:00;;;;;;;1.90;1.80;;;;;;;27.30;49.92;101372.47;10418195;28;20032;-76
2023/07/19 13:35:00;;;;;;;3.35;2.33;;;;;;;27.87;49.17;101369.72;10418989;28;20057;-76
2023/07/19 13:40:00;;;;;;;4.20;2.30;;;;;;;27.68;47.74;101378.06;10418487;28;20079;-75
2023/07/19 13:45:01;;;;;;;3.13;2.10;;;;;;;27.65;48.44;101362.78;10434259;28;20033;-76
2023/07/19 13:50:02;;;;;;;5.57;1.95;;;;;;;26.40;49.72;101374.03;10433246;28;20119;-76
2023/07/19 13:55:04;;;;;;;3.55;1.77;;;;;;;25.70;50.55;101374.28;10417688;28;20112;-76
2023/07/19 14:00:06;;;;;;;3.83;2.50;;;;;;;25.26;52.58;101378.69;10419441;28;20472;-76
2023/07/19 14:05:07;;;;;;;4.90;2.35;;;;;;;24.99;53.13;101378.22;10432982;28;20073;-76
2023/07/19 14:10:08;;;;;;;4.22;2.53;;;;;;;24.90;54.08;101380.75;10418391;28;20053;-72
2023/07/19 14:15:08;;;;;;;1.90;1.73;;;;;;;24.38;54.58;101390.25;10432862;28;20033;-71
2023/07/19 14:20:10;;;;;;;12.65;2.17;;;;;;;24.02;55.74;101381.94;10417896;28;20113;-72
2023/07/19 14:25:11;;;;;;;2.72;1.73;;;;;;;24.08;56.16;101391.06;10417579;28;20040;-72
2023/07/19 14:30:11;;;;;;;1.88;1.65;;;;;;;23.75;57.16;101386.91;10417794;28;20104;-71
2023/07/19 14:35:13;;;;;;;9.07;2.95;;;;;;;23.77;57.71;101388.28;10417185;28;20116;-72
2023/07/19 14:40:13;;;;;;;2.50;2.30;;;;;;;23.74;57.91;101385.22;10418082;28;20037;-71
2023/07/19 14:45:14;;;;;;;3.08;2.83;;;;;;;23.56;58.67;101389.31;10349986;28;20424;-71
2023/07/19 14:50:14;;;;;;;4.60;2.05;;;;;;;23.15;59.75;101391.94;10416054;28;20132;-71
2023/07/19 14:55:14;;;;;;;2.45;1.80;;;;;;;23.34;60.15;101387.59;10416262;28;20057;-71
2023/07/19 15:00:15;;;;;;;2.58;2.38;;;;;;;23.63;60.10;101378.81;10415258;28;20361;-71
2023/07/19 15:05:16;;;;;;;2.67;2.28;;;;;;;23.57;59.84;101377.16;10414873;28;20033;-71
2023/07/19 15:10:16;;;;;;;5.65;2.25;;;;;;;23.41;60.07;101371.56;10415790;28;20081;-71
2023/07/19 15:15:18;;;;;;;2.28;2.08;;;;;;;23.34;59.97;101368.25;10415860;28;20450;-71
2023/07/19 15:20:19;;;;;;;5.43;2.15;;;;;;;23.03;60.51;101381.09;10415486;28;20116;-71
2023/07/19 15:25:20;;;;;;;2.20;1.88;;;;;;;23.37;60.49;101366.88;10414156;28;20037;-71
2023/07/19 15:30:21;;;;;;;3.50;2.28;;;;;;;23.66;59.88;101359.75;10415375;28;20108;-71
2023/07/19 15:35:22;;;;;;;5.38;1.70;;;;;;;23.42;59.70;101370.50;10414379;28;20021;-71
2023/07/19 15:40:22;;;;;;;11.80;2.58;;;;;;;23.04;61.15;101368.97;10430061;28;20044;-71
2023/07/19 15:45:23;;;;;;;6.53;1.92;;;;;;;23.13;61.37;101372.03;10415841;28;20039;-71
2023/07/19 15:50:23;;;;;;;9.45;2.45;;;;;;;23.12;62.11;101365.69;10412996;28;20128;-71
2023/07/19 15:55:24;;;;;;;3.05;1.83;;;;;;;23.14;62.45;101370.94;10414455;28;20037;-71
2023/07/19 16:00:24;;;;;;;2.67;2.35;;;;;;;23.24;62.64;101365.44;10414337;28;20075;-71
2023/07/19 16:05:25;;;;;;;2.05;1.45;;;;;;;23.50;61.65;101365.53;10413796;28;20041;-71
2023/07/19 16:10:25;;;;;;;1.42;1.42;;;;;;;24.07;60.55;101361.75;10414109;28;20512;-71
2023/07/19 16:15:26;;;;;;;7.93;2.42;;;;;;;24.66;59.67;101358.38;10412798;28;20071;-71
2023/07/19 16:20:26;;;;;;;5.68;1.77;;;;;;;24.13;58.83;101358.72;10411947;28;20104;-71
2023/07/19 16:25:27;;;;;;;1.77;1.67;;;;;;;23.73;59.12;101350.38;10413759;28;20120;-71
2023/07/19 16:30:27;;;;;;;3.22;1.92;;;;;;;23.07;60.13;101362.91;10379566;28;20025;-72
2023/07/19 16:35:28;;;;;;;3.90;2.40;;;;;;;22.65;62.66;101368.44;10413325;28;20083;-71
2023/07/19 16:40:28;;;;;;;5.55;2.22;;;;;;;22.42;64.57;101367.75;10413453;28;20095;-71
2023/07/19 16:45:28;;;;;;;9.40;2.63;;;;;;;22.13;65.15;101366.41;10411256;28;20148;-71
2023/07/19 16:50:30;;;;;;;3.33;2.20;;;;;;;21.80;66.22;101376.59;10412952;28;20137;-71
2023/07/19 16:55:30;;;;;;;2.25;2.05;;;;;;;21.60;68.22;101366.19;10414150;28;20076;-71
2023/07/19 17:00:30;;;;;;;3.10;2.38;;;;;;;21.46;68.82;101365.75;10413276;28;20061;-71
2023/07/19 17:05:34;;;;;;;6.20;1.83;;;;;;;21.11;70.76;101361.47;10427941;28;20076;-71
2023/07/19 17:10:34;;;;;;;1.63;1.50;;;;;;;20.90;70.53;101382.41;10413610;28;20046;-71
2023/07/19 17:15:35;;;;;;;2.38;2.17;;;;;;;20.98;70.58;101372.06;10427536;28;20029;-71
2023/07/19 17:20:36;;;;;;;1.65;1.55;;;;;;;21.09;70.80;101374.69;10413247;28;20034;-71
2023/07/19 17:25:37;;;;;;;2.38;1.88;;;;;;;21.33;69.51;101369.72;10420109;28;20438;-71
2023/07/19 17:30:39;;;;;;;1.35;1.17;;;;;;;21.31;69.70;101371.06;10420012;28;20404;-71
2023/07/19 17:35:40;;;;;;;1.50;1.40;;;;;;;21.43;68.70;101370.97;10419859;28;20107;-71
2023/07/19 17:40:40;;;;;;;2.00;1.52;;;;;;;21.29;69.70;101368.59;10419076;28;20079;-71
2023/07/19 17:45:40;;;;;;;4.13;2.08;;;;;;;21.35;69.24;101377.78;10435444;28;20420;-71
2023/07/19 17:50:41;;;;;;;7.55;1.75;;;;;;;21.02;70.87;101384.22;10420350;28;20479;-71
2023/07/19 17:55:41;;;;;;;1.63;1.40;;;;;;;20.74;70.36;101377.81;10419060;28;20033;-71
2023/07/19 18:00:41;;;;;;;1.65;1.60;;;;;;;20.41;72.18;101362.97;10418526;28;20034;-71
2023/07/19 18:05:42;;;;;;;1.73;1.55;;;;;;;20.15;73.09;101366.41;10417805;28;20109;-71
2023/07/19 18:10:43;;;;;;;2.67;1.90;;;;;;;20.06;73.01;101376.16;10433498;28;20029;-71
2023/07/19 18:15:43;;;;;;;3.15;2.47;;;;;;;19.97;74.41;101383.97;10418456;28;20032;-71
2023/07/19 18:20:45;;;;;;;2.53;2.10;;;;;;;20.00;76.02;101380.72;10418062;28;20041;-71
2023/07/19 18:25:45;;;;;;;1.75;1.65;;;;;;;19.94;78.69;101389.94;10418388;28;20037;-71
2023/07/19 18:30:45;;;;;;;1.73;1.63;;;;;;;19.84;79.35;101389.78;10417134;28;20025;-71
2023/07/19 18:35:46;;;;;;;1.77;1.65;;;;;;;19.77;80.77;101389.09;10418051;28;20057;-71
2023/07/19 18:40:46;;;;;;;1.52;1.45;;;;;;;19.84;79.15;101387.84;10417725;28;20033;-71
2023/07/19 18:45:47;;;;;;;9.02;1.80;;;;;;;19.77;80.68;101378.13;10415542;28;20398;-73
2023/07/19 18:50:49;;;;;;;3.05;1.65;;;;;;;19.67;80.74;101379.59;10417142;28;20065;-72
2023/07/19 18:55:50;;;;;;;1.23;1.23;;;;;;;19.61;82.82;101383.28;10431933;28;20033;-73
2023/07/19 19:00:50;;;;;;;1.10;1.10;;;;;;;19.49;82.88;101375.09;10415763;28;20052;-71
2023/07/19 19:05:51;;;;;;;1.50;1.40;;;;;;;19.35;84.20;101375.66;10414954;28;20132;-72
2023/07/19 19:10:51;;;;;;;1.70;1.60;;;;;;;19.31;83.59;101377.22;10416077;28;20068;-73
2023/07/19 19:15:52;;;;;;;2.65;1.80;;;;;;;19.27;84.06;101371.34;10414781;28;20056;-71
2023/07/19 19:20:53;;;;;;;1.75;1.42;;;;;;;19.23;83.21;101373.75;10416427;28;20049;-72
2023/07/19 19:25:54;;;;;;;4.60;2.22;;;;;;;19.16;83.35;101377.72;10430734;28;20038;-72
2023/07/19 19:30:56;;;;;;;1.58;1.40;;;;;;;19.17;82.77;101368.41;10415967;28;20049;-72
2023/07/19 19:35:56;;;;;;;2.15;2.05;;;;;;;19.12;83.53;101369.16;10416146;28;20040;-71
2023/07/19 19:40:57;;;;;;;1.90;1.63;;;;;;;19.03;82.66;101367.84;10416418;28;20044;-73
2023/07/19 19:45:58;;;;;;;6.32;2.38;;;;;;;18.89;83.12;101364.56;10413079;28;20096;-72
2023/07/19 19:50:59;;;;;;;1.63;1.52;;;;;;;18.78;83.24;101363.47;10431098;28;20057;-73
2023/07/19 19:55:59;;;;;;;1.90;1.80;;;;;;;18.68;83.18;101365.16;10429901;28;20516;-73
2023/07/19 20:01:00;;;;;;;4.30;1.90;;;;;;;18.55;83.82;101366.22;10413736;28;20145;-72
2023/07/19 20:06:00;;;;;;;2.47;1.75;;;;;;;18.46;84.38;101367.66;10397718;28;20056;-72
2023/07/19 20:11:01;;;;;;;2.33;2.13;;;;;;;18.32;84.88;101365.16;10414878;28;20436;-74
2023/07/19 20:16:01;;;;;;;3.55;1.92;;;;;;;18.27;86.03;101369.69;10414313;28;20164;-72
2023/07/19 20:21:01;;;;;;;8.25;2.35;;;;;;;18.28;85.96;101363.09;10415321;28;20060;-73
2023/07/19 20:26:02;;;;;;;6.75;2.53;;;;;;;18.26;85.89;101385.28;10413135;28;20493;-76
2023/07/19 20:31:02;;;;;;;2.95;2.72;;;;;;;18.15;86.51;101393.50;10413177;28;20061;-76
2023/07/19 20:36:03;;;;;;;3.53;2.47;;;;;;;18.06;88.06;101387.50;10413122;28;20108;-71
2023/07/19 20:41:03;;;;;;;6.05;3.50;;;;;;;17.62;100.00;101386.91;10430340;28;20120;-72
2023/07/19 20:46:04;;;;;;;0.38;0.38;;;;;;;17.38;100.00;101386.78;10429183;28;20420;-72
2023/07/19 20:51:06;;;;;;;0.80;0.80;;;;;;;17.24;100.00;101390.78;10412297;28;20092;-72
2023/07/19 20:56:07;;;;;;;0.57;0.57;;;;;;;17.18;100.00;101375.25;10429510;28;20084;-72
2023/07/19 21:01:07;;;;;;;0.30;0.30;;;;;;;17.07;100.00;101381.50;10438223;28;20350;-72
2023/07/19 21:06:08;;;;;;;0.40;0.40;;;;;;;17.03;100.00;101381.13;10423059;28;20459;-73
2023/07/19 21:11:08;;;;;;;1.67;1.58;;;;;;;17.07;100.00;101387.81;10421795;28;20053;-72
2023/07/19 21:16:09;;;;;;;2.38;2.28;;;;;;;17.18;100.00;101395.25;10421595;28;20523;-72
2023/07/19 21:21:09;;;;;;;0.57;0.57;;;;;;;17.17;100.00;101381.81;10418924;28;20047;-72
2023/07/19 21:26:10;;;;;;;0.60;0.60;;;;;;;16.98;100.00;101391.09;10420320;28;20060;-71
2023/07/19 21:31:10;;;;;;;0.20;0.20;;;;;;;16.93;100.00;101384.38;10420621;28;20037;-71
2023/07/19 21:36:11;;;;;;;0.68;0.68;;;;;;;16.81;100.00;101388.94;10435159;28;20041;-72
2023/07/19 21:41:11;;;;;;;0.63;0.60;;;;;;;16.76;100.00;101397.00;10418838;28;20033;-72
2023/07/19 21:46:13;;;;;;;0.45;0.45;;;;;;;16.83;100.00;101402.41;10420446;28;20061;-72
2023/07/19 21:51:13;;;;;;;0.85;0.85;;;;;;;16.68;100.00;101387.16;10420141;28;20358;-72
2023/07/19 21:56:15;;;;;;;0.60;0.60;;;;;;;16.64;100.00;101409.72;10419890;28;20037;-71
2023/07/19 22:01:15;;;;;;;0.30;0.30;;;;;;;16.60;100.00;101408.50;10418178;28;20041;-72
2023/07/19 22:06:15;;;;;;;0.55;0.55;;;;;;;16.56;100.00;101397.19;10417947;28;20033;-72
2023/07/19 22:11:16;;;;;;;0.20;0.20;;;;;;;16.47;100.00;101407.56;10419006;28;20048;-72
2023/07/19 22:16:16;;;;;;;1.27;0.55;;;;;;;16.45;100.00;101411.56;10418434;28;20040;-72
2023/07/19 22:21:16;;;;;;;0.63;0.63;;;;;;;16.30;100.00;101416.53;10418671;28;20221;-71
2023/07/19 22:26:17;;;;;;;0.30;0.30;;;;;;;16.23;100.00;101417.41;10419639;28;20037;-72
2023/07/19 22:31:18;;;;;;;0.22;0.22;;;;;;;16.10;100.00;101414.78;10416277;28;20619;-72
2023/07/19 22:36:18;;;;;;;0.30;0.30;;;;;;;15.96;100.00;101422.25;10417902;28;20030;-72
2023/07/19 22:41:19;;;;;;;0.25;0.25;;;;;;;15.98;100.00;101422.03;10418295;28;20045;-72
2023/07/19 22:46:19;;;;;;;2.30;2.20;;;;;;;16.00;100.00;101423.47;10415688;28;20108;-72
2023/07/19 22:51:20;;;;;;;0.40;0.40;;;;;;;16.09;100.00;101424.06;10416526;28;20080;-72
2023/07/19 22:56:20;;;;;;;0.30;0.30;;;;;;;15.98;100.00;101435.69;10417235;28;20034;-72